Denver, CO (80229)

8:04 PM MDT on April 27, 2017 (GMT -0600)
Old Thornton | | Change Station

Elev 5312 ft 39.87 °N, 104.97 °W | Updated 12 seconds ago

Partly Cloudy
Partly Cloudy
45.5 °F
Feels Like 46 °F
N
0.0
Wind Variable Wind from ESE

Today
High -- | Low -- °F
--% Chance of Precip.
Yesterday
High -- | Low -- °F
Precip. -- in
Pressure 29.61 in
Visibility 30.0 miles
Clouds Few 6000 ft
Scattered Clouds 8500 ft
Mostly Cloudy 10000 ft
Windchill 46 °F
Dew Point 31 °F
Humidity 56%
Rainfall 0.00 in
Snow Depth Not available.
6:04 AM 7:50 PM
Waxing Crescent, 4% visible
METAR KBJC 280153Z 00000KT 30SM VCSH FEW060 SCT085 BKN100TCU 08/02 A2961 RMK TCU SE
Pressure 29.61 in
Visibility 30.0 miles
Clouds Few 6000 ft
Scattered Clouds 8500 ft
Mostly Cloudy 10000 ft
Windchill 46 °F
Dew Point 31 °F
Humidity 56%
Rainfall 0.00 in
Snow Depth Not available.
6:04 AM 7:50 PM
Waxing Crescent, 4% visible
METAR KBJC 280153Z 00000KT 30SM VCSH FEW060 SCT085 BKN100TCU 08/02 A2961 RMK TCU SE

Get Severe Weather Alerts

Thanks for signing up!

Be on the lookout for a verification email in your inbox.

You'll start receiving the daily forecast at 8 AM.

×

10-Day Weather Forecast

Almanac

Astronomy

Apr. 27, 2017 Rise Set
Actual Time
Civil Twilight
Nautical Twilight
Astronomical Twilight
Moon
Length of Visible Light
Length of Day
Tomorrow will be .
, % of the Moon is Illuminated

Today's Extremes

State Highs State Lows

Community

WunderPhotos

WunderBlog® & News

Nearby

Air Quality

  Air Quality AQ Index Pollutant
Not available.

Snow Depth

Station Depth Elevation

Earthquake Activity

City Distance Mag. Time & Date
Minimum magnitude displayed is 2.5.

Coastal Water Temperatures

Place Temperature

Stations

Nearby Weather Stations

Station Location Temp. Windchill Dew Point Humidity Wind Precip. Elev Updated Type
                   

Watches & Warnings

There are currently no watches in effect.